sensor_id;sensor_type;location;lat;lon;timestamp;pressure;altitude;pressure_sealevel;temperature;humidity
5966;BME280;3009;43.224;27.976;2023-02-26T00:01:12;99391.13;;;12.93;75.27
5966;BME280;3009;43.224;27.976;2023-02-26T00:03:40;99393.31;;;12.88;75.89
5966;BME280;3009;43.224;27.976;2023-02-26T00:06:09;99381.22;;;12.82;76.36
5966;BME280;3009;43.224;27.976;2023-02-26T00:08:38;99371.78;;;12.88;76.40
5966;BME280;3009;43.224;27.976;2023-02-26T00:11:08;99364.13;;;12.90;76.63
5966;BME280;3009;43.224;27.976;2023-02-26T00:13:38;99369.44;;;12.86;76.54
5966;BME280;3009;43.224;27.976;2023-02-26T00:16:13;99367.53;;;12.87;76.94
5966;BME280;3009;43.224;27.976;2023-02-26T00:18:46;99370.28;;;12.90;77.00
5966;BME280;3009;43.224;27.976;2023-02-26T00:21:16;99360.75;;;12.93;77.08
5966;BME280;3009;43.224;27.976;2023-02-26T00:23:44;99365.72;;;12.91;77.50
5966;BME280;3009;43.224;27.976;2023-02-26T00:26:14;99373.78;;;12.91;77.81
5966;BME280;3009;43.224;27.976;2023-02-26T00:28:43;99356.84;;;12.90;78.11
5966;BME280;3009;43.224;27.976;2023-02-26T00:31:13;99379.16;;;12.91;78.28
5966;BME280;3009;43.224;27.976;2023-02-26T00:33:42;99381.94;;;12.94;78.28
5966;BME280;3009;43.224;27.976;2023-02-26T00:36:19;99386.00;;;12.88;78.28
5966;BME280;3009;43.224;27.976;2023-02-26T00:38:58;99377.75;;;12.81;78.79
5966;BME280;3009;43.224;27.976;2023-02-26T00:41:30;99377.69;;;12.77;78.96
5966;BME280;3009;43.224;27.976;2023-02-26T00:43:59;99393.28;;;12.72;79.16
5966;BME280;3009;43.224;27.976;2023-02-26T00:46:35;99382.97;;;12.74;79.36
5966;BME280;3009;43.224;27.976;2023-02-26T00:49:11;99374.03;;;12.70;79.50
5966;BME280;3009;43.224;27.976;2023-02-26T00:51:48;99366.22;;;12.65;80.19
5966;BME280;3009;43.224;27.976;2023-02-26T00:54:21;99368.13;;;12.64;80.38
5966;BME280;3009;43.224;27.976;2023-02-26T00:56:54;99369.94;;;12.60;80.83
5966;BME280;3009;43.224;27.976;2023-02-26T00:59:23;99376.97;;;12.65;80.69
5966;BME280;3009;43.224;27.976;2023-02-26T01:01:52;99368.91;;;12.65;81.04
5966;BME280;3009;43.224;27.976;2023-02-26T01:04:22;99366.56;;;12.63;81.28
5966;BME280;3009;43.224;27.976;2023-02-26T01:06:53;99373.44;;;12.61;81.41
5966;BME280;3009;43.224;27.976;2023-02-26T01:09:24;99375.59;;;12.55;81.98
5966;BME280;3009;43.224;27.976;2023-02-26T01:11:55;99375.06;;;12.49;82.27
5966;BME280;3009;43.224;27.976;2023-02-26T01:14:24;99359.34;;;12.51;82.61
5966;BME280;3009;43.224;27.976;2023-02-26T01:16:55;99360.22;;;12.55;82.59
5966;BME280;3009;43.224;27.976;2023-02-26T01:19:34;99359.34;;;12.51;82.83
5966;BME280;3009;43.224;27.976;2023-02-26T01:22:08;99351.72;;;12.53;82.89
5966;BME280;3009;43.224;27.976;2023-02-26T01:24:38;99354.06;;;12.55;82.81
5966;BME280;3009;43.224;27.976;2023-02-26T01:27:08;99348.00;;;12.58;82.82
5966;BME280;3009;43.224;27.976;2023-02-26T01:29:36;99348.44;;;12.60;82.75
5966;BME280;3009;43.224;27.976;2023-02-26T01:32:08;99344.09;;;12.55;82.96
5966;BME280;3009;43.224;27.976;2023-02-26T01:34:43;99339.66;;;12.63;82.50
5966;BME280;3009;43.224;27.976;2023-02-26T01:37:21;99330.41;;;12.61;82.55
5966;BME280;3009;43.224;27.976;2023-02-26T01:40:04;99336.44;;;12.57;82.84
5966;BME280;3009;43.224;27.976;2023-02-26T01:42:42;99331.06;;;12.57;82.89
5966;BME280;3009;43.224;27.976;2023-02-26T01:45:14;99333.34;;;12.55;82.87
5966;BME280;3009;43.224;27.976;2023-02-26T01:47:48;99333.34;;;12.55;83.07
5966;BME280;3009;43.224;27.976;2023-02-26T01:50:21;99331.19;;;12.61;82.57
5966;BME280;3009;43.224;27.976;2023-02-26T01:53:15;99333.16;;;12.64;82.50
5966;BME280;3009;43.224;27.976;2023-02-26T01:55:48;99347.66;;;12.59;82.88
5966;BME280;3009;43.224;27.976;2023-02-26T01:58:19;99349.22;;;12.61;82.65
5966;BME280;3009;43.224;27.976;2023-02-26T02:00:48;99345.91;;;12.67;82.35
5966;BME280;3009;43.224;27.976;2023-02-26T02:03:18;99343.41;;;12.74;81.90
5966;BME280;3009;43.224;27.976;2023-02-26T02:05:51;99350.50;;;12.83;81.61
5966;BME280;3009;43.224;27.976;2023-02-26T02:08:21;99340.28;;;12.88;81.26
5966;BME280;3009;43.224;27.976;2023-02-26T02:10:50;99350.50;;;12.83;81.53
5966;BME280;3009;43.224;27.976;2023-02-26T02:13:28;99354.41;;;12.85;81.60
5966;BME280;3009;43.224;27.976;2023-02-26T02:16:10;99356.84;;;12.90;81.55
5966;BME280;3009;43.224;27.976;2023-02-26T02:18:48;99358.00;;;12.89;81.45
5966;BME280;3009;43.224;27.976;2023-02-26T02:21:40;99355.03;;;12.94;81.55
5966;BME280;3009;43.224;27.976;2023-02-26T02:24:20;99365.16;;;13.01;80.97
5966;BME280;3009;43.224;27.976;2023-02-26T02:26:59;99368.66;;;13.02;81.02
5966;BME280;3009;43.224;27.976;2023-02-26T02:30:04;99369.06;;;13.04;80.64
5966;BME280;3009;43.224;27.976;2023-02-26T02:32:38;99360.75;;;13.09;80.67
5966;BME280;3009;43.224;27.976;2023-02-26T02:35:14;99379.06;;;13.03;80.64
5966;BME280;3009;43.224;27.976;2023-02-26T02:37:49;99367.25;;;13.08;80.65
5966;BME280;3009;43.224;27.976;2023-02-26T02:40:24;99378.38;;;13.06;80.51
5966;BME280;3009;43.224;27.976;2023-02-26T02:42:59;99375.22;;;13.04;80.65
5966;BME280;3009;43.224;27.976;2023-02-26T02:45:33;99382.19;;;13.05;80.64
5966;BME280;3009;43.224;27.976;2023-02-26T02:48:07;99375.91;;;13.01;80.90
5966;BME280;3009;43.224;27.976;2023-02-26T02:50:39;99385.56;;;13.02;80.62
5966;BME280;3009;43.224;27.976;2023-02-26T02:53:14;99403.63;;;13.02;80.59
5966;BME280;3009;43.224;27.976;2023-02-26T02:55:47;99401.19;;;12.97;81.18
5966;BME280;3009;43.224;27.976;2023-02-26T02:58:21;99411.16;;;12.96;81.12
5966;BME280;3009;43.224;27.976;2023-02-26T03:00:52;99423.41;;;12.93;81.08
5966;BME280;3009;43.224;27.976;2023-02-26T03:03:26;99433.94;;;12.99;80.84
5966;BME280;3009;43.224;27.976;2023-02-26T03:05:57;99439.19;;;12.95;80.97
5966;BME280;3009;43.224;27.976;2023-02-26T03:08:27;99431.47;;;12.93;80.91
5966;BME280;3009;43.224;27.976;2023-02-26T03:10:57;99441.13;;;12.94;80.83
5966;BME280;3009;43.224;27.976;2023-02-26T03:13:25;99451.00;;;12.90;81.17
5966;BME280;3009;43.224;27.976;2023-02-26T03:16:05;99452.84;;;12.86;81.34
5966;BME280;3009;43.224;27.976;2023-02-26T03:18:49;99449.34;;;12.86;81.18
5966;BME280;3009;43.224;27.976;2023-02-26T03:21:25;99458.56;;;12.85;81.28
5966;BME280;3009;43.224;27.976;2023-02-26T03:23:58;99459.34;;;12.85;81.25
5966;BME280;3009;43.224;27.976;2023-02-26T03:26:31;99459.69;;;12.84;81.28
5966;BME280;3009;43.224;27.976;2023-02-26T03:29:05;99464.94;;;12.80;81.58
5966;BME280;3009;43.224;27.976;2023-02-26T03:31:42;99462.38;;;12.84;81.47
5966;BME280;3009;43.224;27.976;2023-02-26T03:34:23;99469.31;;;12.85;81.36
5966;BME280;3009;43.224;27.976;2023-02-26T03:36:56;99452.84;;;12.86;81.20
5966;BME280;3009;43.224;27.976;2023-02-26T03:39:30;99462.47;;;12.87;81.08
5966;BME280;3009;43.224;27.976;2023-02-26T03:42:04;99459.34;;;12.85;81.23
5966;BME280;3009;43.224;27.976;2023-02-26T03:44:38;99469.13;;;12.77;81.59
5966;BME280;3009;43.224;27.976;2023-02-26T03:47:13;99463.94;;;12.85;81.32
5966;BME280;3009;43.224;27.976;2023-02-26T03:49:47;99462.72;;;12.82;81.44
5966;BME280;3009;43.224;27.976;2023-02-26T03:52:16;99473.72;;;12.77;81.57
5966;BME280;3009;43.224;27.976;2023-02-26T03:54:54;99476.94;;;12.83;81.45
5966;BME280;3009;43.224;27.976;2023-02-26T03:57:23;99478.94;;;12.86;81.20
5966;BME280;3009;43.224;27.976;2023-02-26T03:59:53;99468.72;;;12.91;80.80
5966;BME280;3009;43.224;27.976;2023-02-26T04:02:26;99473.41;;;12.94;80.46
5966;BME280;3009;43.224;27.976;2023-02-26T04:05:01;99484.59;;;12.97;80.29
5966;BME280;3009;43.224;27.976;2023-02-26T04:07:30;99486.16;;;12.98;80.00
5966;BME280;3009;43.224;27.976;2023-02-26T04:09:59;99482.88;;;13.04;79.69
5966;BME280;3009;43.224;27.976;2023-02-26T04:12:27;99489.38;;;13.03;79.64
5966;BME280;3009;43.224;27.976;2023-02-26T04:14:56;99496.78;;;13.06;79.18
5966;BME280;3009;43.224;27.976;2023-02-26T04:17:25;99500.69;;;13.09;79.14
5966;BME280;3009;43.224;27.976;2023-02-26T04:19:57;99495.47;;;13.16;78.84
5966;BME280;3009;43.224;27.976;2023-02-26T04:22:25;99505.63;;;13.23;78.46
5966;BME280;3009;43.224;27.976;2023-02-26T04:24:53;99508.75;;;13.25;78.19
5966;BME280;3009;43.224;27.976;2023-02-26T04:27:21;99508.06;;;13.28;78.47
5966;BME280;3009;43.224;27.976;2023-02-26T04:29:50;99517.88;;;13.20;78.79
5966;BME280;3009;43.224;27.976;2023-02-26T04:32:18;99531.06;;;13.25;78.68
5966;BME280;3009;43.224;27.976;2023-02-26T04:34:46;99530.38;;;13.28;78.66
5966;BME280;3009;43.224;27.976;2023-02-26T04:37:15;99537.44;;;13.33;78.35
5966;BME280;3009;43.224;27.976;2023-02-26T04:39:44;99537.31;;;13.29;78.45
5966;BME280;3009;43.224;27.976;2023-02-26T04:42:12;99532.28;;;13.28;78.67
5966;BME280;3009;43.224;27.976;2023-02-26T04:44:40;99523.19;;;13.33;78.69
5966;BME280;3009;43.224;27.976;2023-02-26T04:47:08;99536.63;;;13.33;78.67
5966;BME280;3009;43.224;27.976;2023-02-26T04:49:36;99534.63;;;13.29;79.10
5966;BME280;3009;43.224;27.976;2023-02-26T04:52:04;99538.91;;;13.30;79.19
5966;BME280;3009;43.224;27.976;2023-02-26T04:54:34;99531.59;;;13.31;79.10
5966;BME280;3009;43.224;27.976;2023-02-26T04:57:03;99542.94;;;13.37;78.94
5966;BME280;3009;43.224;27.976;2023-02-26T04:59:31;99536.63;;;13.33;78.96
5966;BME280;3009;43.224;27.976;2023-02-26T05:02:00;99536.63;;;13.33;78.93
5966;BME280;3009;43.224;27.976;2023-02-26T05:04:28;99532.06;;;13.33;79.13
5966;BME280;3009;43.224;27.976;2023-02-26T05:06:56;99549.00;;;13.34;78.83
5966;BME280;3009;43.224;27.976;2023-02-26T05:09:24;99556.38;;;13.37;78.67
5966;BME280;3009;43.224;27.976;2023-02-26T05:11:54;99562.03;;;13.47;78.15
5966;BME280;3009;43.224;27.976;2023-02-26T05:14:22;99570.13;;;13.47;78.19
5966;BME280;3009;43.224;27.976;2023-02-26T05:16:50;99578.81;;;13.41;78.64
5966;BME280;3009;43.224;27.976;2023-02-26T05:19:19;99590.28;;;13.25;79.17
5966;BME280;3009;43.224;27.976;2023-02-26T05:21:47;99575.25;;;13.37;79.28
5966;BME280;3009;43.224;27.976;2023-02-26T05:24:16;99588.06;;;13.27;79.46
5966;BME280;3009;43.224;27.976;2023-02-26T05:26:44;99599.50;;;13.24;80.03
5966;BME280;3009;43.224;27.976;2023-02-26T05:29:13;99606.56;;;13.29;79.46
5966;BME280;3009;43.224;27.976;2023-02-26T05:31:41;99608.56;;;13.32;79.59
5966;BME280;3009;43.224;27.976;2023-02-26T05:34:10;99611.94;;;13.29;79.63
5966;BME280;3009;43.224;27.976;2023-02-26T05:36:38;99599.19;;;13.42;78.89
5966;BME280;3009;43.224;27.976;2023-02-26T05:39:07;99605.97;;;13.36;79.34
5966;BME280;3009;43.224;27.976;2023-02-26T05:41:35;99604.16;;;13.40;79.21
5966;BME280;3009;43.224;27.976;2023-02-26T05:44:04;99596.66;;;13.33;79.68
5966;BME280;3009;43.224;27.976;2023-02-26T05:46:35;99602.16;;;13.37;79.39
5966;BME280;3009;43.224;27.976;2023-02-26T05:49:03;99605.38;;;13.42;79.33
5966;BME280;3009;43.224;27.976;2023-02-26T05:51:31;99609.97;;;13.42;79.31
5966;BME280;3009;43.224;27.976;2023-02-26T05:53:59;99610.59;;;13.35;79.72
5966;BME280;3009;43.224;27.976;2023-02-26T05:56:27;99609.19;;;13.41;79.36
5966;BME280;3009;43.224;27.976;2023-02-26T05:58:56;99603.19;;;13.48;78.98
5966;BME280;3009;43.224;27.976;2023-02-26T06:01:24;99604.00;;;13.49;78.34
5966;BME280;3009;43.224;27.976;2023-02-26T06:03:54;99606.69;;;13.49;78.39
5966;BME280;3009;43.224;27.976;2023-02-26T06:06:22;99607.91;;;13.51;78.14
5966;BME280;3009;43.224;27.976;2023-02-26T06:08:51;99609.47;;;13.52;77.97
5966;BME280;3009;43.224;27.976;2023-02-26T06:11:19;99603.03;;;13.57;77.61
5966;BME280;3009;43.224;27.976;2023-02-26T06:13:48;99605.03;;;13.60;77.33
5966;BME280;3009;43.224;27.976;2023-02-26T06:16:16;99605.50;;;13.62;77.03
5966;BME280;3009;43.224;27.976;2023-02-26T06:18:46;99607.56;;;13.69;76.87
5966;BME280;3009;43.224;27.976;2023-02-26T06:21:16;99608.69;;;13.68;76.77
5966;BME280;3009;43.224;27.976;2023-02-26T06:23:46;99606.00;;;13.68;76.65
5966;BME280;3009;43.224;27.976;2023-02-26T06:26:14;99614.06;;;13.68;76.57
5966;BME280;3009;43.224;27.976;2023-02-26T06:28:42;99609.16;;;13.70;76.52
5966;BME280;3009;43.224;27.976;2023-02-26T06:31:11;99616.53;;;13.73;76.49
5966;BME280;3009;43.224;27.976;2023-02-26T06:33:39;99616.78;;;13.68;76.74
5966;BME280;3009;43.224;27.976;2023-02-26T06:36:08;99603.66;;;13.66;76.57
5966;BME280;3009;43.224;27.976;2023-02-26T06:38:38;99609.03;;;13.66;76.56
5966;BME280;3009;43.224;27.976;2023-02-26T06:41:06;99607.75;;;13.76;75.71
5966;BME280;3009;43.224;27.976;2023-02-26T06:43:34;99616.94;;;13.75;75.75
5966;BME280;3009;43.224;27.976;2023-02-26T06:46:03;99611.66;;;13.78;75.33
5966;BME280;3009;43.224;27.976;2023-02-26T06:48:31;99622.00;;;13.76;75.52
5966;BME280;3009;43.224;27.976;2023-02-26T06:51:00;99643.47;;;13.73;75.79
5966;BME280;3009;43.224;27.976;2023-02-26T06:53:28;99639.47;;;13.67;75.73
5966;BME280;3009;43.224;27.976;2023-02-26T06:55:57;99640.09;;;13.76;75.02
5966;BME280;3009;43.224;27.976;2023-02-26T06:58:25;99638.50;;;13.75;74.83
5966;BME280;3009;43.224;27.976;2023-02-26T07:00:54;99637.47;;;13.79;74.50
5966;BME280;3009;43.224;27.976;2023-02-26T07:03:22;99643.38;;;13.85;74.17
5966;BME280;3009;43.224;27.976;2023-02-26T07:05:50;99643.47;;;13.89;74.03
5966;BME280;3009;43.224;27.976;2023-02-26T07:08:18;99674.69;;;13.90;74.05
5966;BME280;3009;43.224;27.976;2023-02-26T07:10:46;99660.44;;;13.89;73.77
5966;BME280;3009;43.224;27.976;2023-02-26T07:13:16;99665.81;;;13.89;73.79
5966;BME280;3009;43.224;27.976;2023-02-26T07:15:45;99659.97;;;13.87;73.62
5966;BME280;3009;43.224;27.976;2023-02-26T07:18:13;99663.63;;;13.95;73.37
5966;BME280;3009;43.224;27.976;2023-02-26T07:20:42;99654.88;;;13.98;73.21
5966;BME280;3009;43.224;27.976;2023-02-26T07:23:11;99648.41;;;13.87;73.93
5966;BME280;3009;43.224;27.976;2023-02-26T07:25:39;99669.28;;;13.90;73.90
5966;BME280;3009;43.224;27.976;2023-02-26T07:28:09;99671.47;;;14.00;72.87
5966;BME280;3009;43.224;27.976;2023-02-26T07:30:39;99670.06;;;14.06;72.53
5966;BME280;3009;43.224;27.976;2023-02-26T07:33:08;99676.34;;;14.10;72.57
5966;BME280;3009;43.224;27.976;2023-02-26T07:35:39;99684.31;;;14.07;72.17
5966;BME280;3009;43.224;27.976;2023-02-26T07:38:08;99689.00;;;14.10;72.45
5966;BME280;3009;43.224;27.976;2023-02-26T07:40:36;99697.28;;;14.17;71.78
5966;BME280;3009;43.224;27.976;2023-02-26T07:43:04;99691.13;;;14.16;71.76
5966;BME280;3009;43.224;27.976;2023-02-26T07:45:32;99698.22;;;14.25;71.51
5966;BME280;3009;43.224;27.976;2023-02-26T07:48:02;99697.19;;;14.29;71.10
5966;BME280;3009;43.224;27.976;2023-02-26T07:50:31;99689.38;;;14.24;71.36
5966;BME280;3009;43.224;27.976;2023-02-26T07:52:59;99696.34;;;14.25;71.50
5966;BME280;3009;43.224;27.976;2023-02-26T07:55:27;99696.47;;;14.32;71.13
5966;BME280;3009;43.224;27.976;2023-02-26T07:57:55;99697.63;;;14.31;70.90
5966;BME280;3009;43.224;27.976;2023-02-26T08:00:24;99683.56;;;14.22;71.09
5966;BME280;3009;43.224;27.976;2023-02-26T08:02:52;99684.41;;;14.26;70.65
5966;BME280;3009;43.224;27.976;2023-02-26T08:05:21;99680.41;;;14.20;71.15
5966;BME280;3009;43.224;27.976;2023-02-26T08:07:50;99689.03;;;14.26;70.68
5966;BME280;3009;43.224;27.976;2023-02-26T08:10:18;99693.00;;;14.32;70.25
5966;BME280;3009;43.224;27.976;2023-02-26T08:12:46;99684.66;;;14.37;69.81
5966;BME280;3009;43.224;27.976;2023-02-26T08:15:14;99686.03;;;14.47;69.46
5966;BME280;3009;43.224;27.976;2023-02-26T08:17:42;99693.84;;;14.52;68.96
5966;BME280;3009;43.224;27.976;2023-02-26T08:20:11;99680.63;;;14.63;67.81
5966;BME280;3009;43.224;27.976;2023-02-26T08:22:42;99689.47;;;14.79;67.17
5966;BME280;3009;43.224;27.976;2023-02-26T08:25:11;99696.94;;;14.86;66.74
5966;BME280;3009;43.224;27.976;2023-02-26T08:27:39;99684.56;;;14.85;66.13
5966;BME280;3009;43.224;27.976;2023-02-26T08:30:09;99686.16;;;15.05;65.19
5966;BME280;3009;43.224;27.976;2023-02-26T08:32:38;99686.06;;;15.02;65.53
5966;BME280;3009;43.224;27.976;2023-02-26T08:35:08;99687.50;;;15.15;64.55
5966;BME280;3009;43.224;27.976;2023-02-26T08:37:37;99682.09;;;15.15;64.21
5966;BME280;3009;43.224;27.976;2023-02-26T08:40:08;99677.06;;;15.14;65.23
5966;BME280;3009;43.224;27.976;2023-02-26T08:42:38;99676.78;;;15.38;63.60
5966;BME280;3009;43.224;27.976;2023-02-26T08:45:07;99680.19;;;15.35;62.91
5966;BME280;3009;43.224;27.976;2023-02-26T08:47:35;99677.91;;;15.37;63.29
5966;BME280;3009;43.224;27.976;2023-02-26T08:50:21;99677.31;;;15.48;63.08
5966;BME280;3009;43.224;27.976;2023-02-26T08:52:50;99682.09;;;15.77;61.81
5966;BME280;3009;43.224;27.976;2023-02-26T08:55:19;99681.16;;;15.89;60.76
5966;BME280;3009;43.224;27.976;2023-02-26T08:57:48;99673.94;;;15.97;59.86
5966;BME280;3009;43.224;27.976;2023-02-26T09:00:17;99674.63;;;15.90;60.36
5966;BME280;3009;43.224;27.976;2023-02-26T09:02:45;99662.16;;;16.09;59.82
5966;BME280;3009;43.224;27.976;2023-02-26T09:05:14;99674.91;;;16.08;59.31
5966;BME280;3009;43.224;27.976;2023-02-26T09:07:43;99683.66;;;16.25;58.98
5966;BME280;3009;43.224;27.976;2023-02-26T09:10:12;99687.69;;;16.11;59.20
5966;BME280;3009;43.224;27.976;2023-02-26T09:12:42;99681.38;;;16.27;59.12
5966;BME280;3009;43.224;27.976;2023-02-26T09:15:11;99679.16;;;16.33;58.24
5966;BME280;3009;43.224;27.976;2023-02-26T09:17:40;99689.63;;;16.38;58.43
5966;BME280;3009;43.224;27.976;2023-02-26T09:20:10;99671.03;;;16.59;57.59
5966;BME280;3009;43.224;27.976;2023-02-26T09:22:39;99685.22;;;16.53;58.15
5966;BME280;3009;43.224;27.976;2023-02-26T09:25:09;99680.75;;;16.64;57.94
5966;BME280;3009;43.224;27.976;2023-02-26T09:27:37;99675.47;;;16.75;57.85
5966;BME280;3009;43.224;27.976;2023-02-26T09:30:08;99683.47;;;16.64;57.78
5966;BME280;3009;43.224;27.976;2023-02-26T09:32:37;99679.78;;;16.79;57.38
5966;BME280;3009;43.224;27.976;2023-02-26T09:35:06;99687.94;;;16.83;57.44
5966;BME280;3009;43.224;27.976;2023-02-26T09:37:34;99678.03;;;16.91;57.04
5966;BME280;3009;43.224;27.976;2023-02-26T09:40:03;99673.88;;;16.97;56.70
5966;BME280;3009;43.224;27.976;2023-02-26T09:42:43;99678.97;;;17.06;56.48
5966;BME280;3009;43.224;27.976;2023-02-26T09:45:24;99694.06;;;17.03;56.81
5966;BME280;3009;43.224;27.976;2023-02-26T09:47:54;99689.72;;;17.29;56.10
5966;BME280;3009;43.224;27.976;2023-02-26T09:50:25;99694.81;;;17.38;55.88
5966;BME280;3009;43.224;27.976;2023-02-26T09:52:59;99703.19;;;17.25;56.05
5966;BME280;3009;43.224;27.976;2023-02-26T09:55:34;99687.00;;;17.29;56.32
5966;BME280;3009;43.224;27.976;2023-02-26T09:58:11;99701.13;;;17.45;55.98
5966;BME280;3009;43.224;27.976;2023-02-26T10:00:52;99691.56;;;17.59;55.59
5966;BME280;3009;43.224;27.976;2023-02-26T10:03:27;99687.97;;;17.47;55.22
5966;BME280;3009;43.224;27.976;2023-02-26T10:06:12;99681.16;;;17.27;55.61
5966;BME280;3009;43.224;27.976;2023-02-26T10:08:50;99678.91;;;17.32;55.66
5966;BME280;3009;43.224;27.976;2023-02-26T10:11:29;99680.28;;;17.15;55.90
5966;BME280;3009;43.224;27.976;2023-02-26T10:14:03;99681.75;;;17.09;56.09
5966;BME280;3009;43.224;27.976;2023-02-26T10:16:37;99678.31;;;17.12;55.77
5966;BME280;3009;43.224;27.976;2023-02-26T10:19:10;99679.41;;;17.08;56.17
5966;BME280;3009;43.224;27.976;2023-02-26T10:21:44;99680.09;;;17.01;56.11
5966;BME280;3009;43.224;27.976;2023-02-26T10:24:19;99679.44;;;17.11;56.26
5966;BME280;3009;43.224;27.976;2023-02-26T10:26:50;99684.69;;;16.97;56.66
5966;BME280;3009;43.224;27.976;2023-02-26T10:29:24;99687.72;;;16.92;57.03
5966;BME280;3009;43.224;27.976;2023-02-26T10:32:05;99680.44;;;16.69;57.38
5966;BME280;3009;43.224;27.976;2023-02-26T10:34:37;99682.28;;;16.65;57.61
5966;BME280;3009;43.224;27.976;2023-02-26T10:37:15;99688.53;;;16.69;57.82
5966;BME280;3009;43.224;27.976;2023-02-26T10:39:49;99689.78;;;16.75;57.70
5966;BME280;3009;43.224;27.976;2023-02-26T10:42:21;99688.75;;;16.57;58.24
5966;BME280;3009;43.224;27.976;2023-02-26T10:45:06;99680.91;;;16.48;58.56
5966;BME280;3009;43.224;27.976;2023-02-26T10:47:44;99688.00;;;16.56;58.44
5966;BME280;3009;43.224;27.976;2023-02-26T10:50:15;99683.94;;;16.43;59.11
5966;BME280;3009;43.224;27.976;2023-02-26T10:52:45;99693.00;;;16.27;59.29
5966;BME280;3009;43.224;27.976;2023-02-26T10:55:28;99681.88;;;16.36;58.95
5966;BME280;3009;43.224;27.976;2023-02-26T10:58:03;99675.66;;;16.32;59.09
5966;BME280;3009;43.224;27.976;2023-02-26T11:00:32;99658.72;;;16.12;59.63
5966;BME280;3009;43.224;27.976;2023-02-26T11:03:04;99661.06;;;16.13;59.46
5966;BME280;3009;43.224;27.976;2023-02-26T11:05:34;99656.88;;;16.16;59.27
5966;BME280;3009;43.224;27.976;2023-02-26T11:08:05;99669.38;;;16.01;59.60
5966;BME280;3009;43.224;27.976;2023-02-26T11:10:40;99680.91;;;15.98;59.56
5966;BME280;3009;43.224;27.976;2023-02-26T11:13:08;99682.78;;;15.94;59.85
5966;BME280;3009;43.224;27.976;2023-02-26T11:15:39;99682.84;;;15.98;59.83
5966;BME280;3009;43.224;27.976;2023-02-26T11:18:12;99673.84;;;15.90;60.11
5966;BME280;3009;43.224;27.976;2023-02-26T11:20:45;99674.13;;;15.85;60.35
5966;BME280;3009;43.224;27.976;2023-02-26T11:23:19;99682.56;;;15.80;60.53
5966;BME280;3009;43.224;27.976;2023-02-26T11:25:52;99687.16;;;15.79;60.76
5966;BME280;3009;43.224;27.976;2023-02-26T11:28:23;99681.25;;;15.73;61.09
5966;BME280;3009;43.224;27.976;2023-02-26T11:30:52;99677.63;;;15.85;60.65
5966;BME280;3009;43.224;27.976;2023-02-26T11:33:27;99680.38;;;15.89;60.67
5966;BME280;3009;43.224;27.976;2023-02-26T11:35:58;99671.88;;;15.87;60.72
5966;BME280;3009;43.224;27.976;2023-02-26T11:38:27;99666.47;;;15.87;60.69
5966;BME280;3009;43.224;27.976;2023-02-26T11:40:57;99645.28;;;15.69;61.02
5966;BME280;3009;43.224;27.976;2023-02-26T11:43:32;99664.19;;;15.69;61.37
5966;BME280;3009;43.224;27.976;2023-02-26T11:46:02;99658.78;;;15.69;61.17
5966;BME280;3009;43.224;27.976;2023-02-26T11:48:38;99676.44;;;15.63;61.49
5966;BME280;3009;43.224;27.976;2023-02-26T11:51:11;99677.66;;;15.66;61.51
5966;BME280;3009;43.224;27.976;2023-02-26T11:53:48;99699.31;;;15.69;61.38
5966;BME280;3009;43.224;27.976;2023-02-26T11:56:25;99705.09;;;15.68;61.38
5966;BME280;3009;43.224;27.976;2023-02-26T11:58:54;99701.28;;;15.30;61.98
5966;BME280;3009;43.224;27.976;2023-02-26T12:01:27;99705.34;;;14.49;64.79
5966;BME280;3009;43.224;27.976;2023-02-26T12:04:00;99703.28;;;13.94;67.25
5966;BME280;3009;43.224;27.976;2023-02-26T12:06:29;99695.69;;;13.68;68.62
5966;BME280;3009;43.224;27.976;2023-02-26T12:08:58;99704.06;;;13.51;70.16
5966;BME280;3009;43.224;27.976;2023-02-26T12:11:42;99691.22;;;13.44;70.54
5966;BME280;3009;43.224;27.976;2023-02-26T12:14:36;99693.28;;;13.35;71.26
5966;BME280;3009;43.224;27.976;2023-02-26T12:17:20;99679.31;;;13.33;71.37
5966;BME280;3009;43.224;27.976;2023-02-26T12:20:02;99694.50;;;13.25;71.74
5966;BME280;3009;43.224;27.976;2023-02-26T12:23:01;99698.81;;;13.54;70.64
5966;BME280;3009;43.224;27.976;2023-02-26T12:25:47;99693.78;;;13.69;69.75
5966;BME280;3009;43.224;27.976;2023-02-26T12:34:43;99676.19;;;15.10;62.16
5966;BME280;3009;43.224;27.976;2023-02-26T12:37:36;99675.91;;;15.34;61.06
5966;BME280;3009;43.224;27.976;2023-02-26T12:40:25;99676.16;;;15.49;60.39
5966;BME280;3009;43.224;27.976;2023-02-26T12:43:01;99681.19;;;15.70;59.48
5966;BME280;3009;43.224;27.976;2023-02-26T12:45:41;99685.66;;;15.82;59.15
5966;BME280;3009;43.224;27.976;2023-02-26T12:48:41;99685.94;;;15.76;59.25
5966;BME280;3009;43.224;27.976;2023-02-26T12:51:25;99683.97;;;15.73;59.51
5966;BME280;3009;43.224;27.976;2023-02-26T12:54:20;99682.19;;;15.62;59.94
5966;BME280;3009;43.224;27.976;2023-02-26T12:57:11;99694.00;;;15.53;60.23
5966;BME280;3009;43.224;27.976;2023-02-26T13:00:01;99688.69;;;15.57;60.13
5966;BME280;3009;43.224;27.976;2023-02-26T13:02:55;99688.81;;;15.64;59.76
5966;BME280;3009;43.224;27.976;2023-02-26T13:05:41;99682.44;;;15.53;60.08
5966;BME280;3009;43.224;27.976;2023-02-26T13:08:19;99690.31;;;15.62;59.69
5966;BME280;3009;43.224;27.976;2023-02-26T13:11:11;99684.00;;;15.54;59.67
5966;BME280;3009;43.224;27.976;2023-02-26T13:13:51;99689.09;;;15.59;59.40
5966;BME280;3009;43.224;27.976;2023-02-26T13:16:30;99690.38;;;15.46;59.72
5966;BME280;3009;43.224;27.976;2023-02-26T13:19:07;99692.28;;;15.22;60.69
5966;BME280;3009;43.224;27.976;2023-02-26T13:21:43;99686.88;;;15.22;60.32
5966;BME280;3009;43.224;27.976;2023-02-26T13:24:14;99695.53;;;15.31;59.75
5966;BME280;3009;43.224;27.976;2023-02-26T13:26:47;99697.59;;;15.38;59.66
5966;BME280;3009;43.224;27.976;2023-02-26T13:29:19;99697.59;;;15.38;59.17
5966;BME280;3009;43.224;27.976;2023-02-26T13:31:51;99696.81;;;15.37;58.93
5966;BME280;3009;43.224;27.976;2023-02-26T13:34:25;99698.94;;;15.48;58.65
5966;BME280;3009;43.224;27.976;2023-02-26T13:36:57;99701.63;;;15.48;58.75
5966;BME280;3009;43.224;27.976;2023-02-26T13:39:40;99709.31;;;15.46;58.50
5966;BME280;3009;43.224;27.976;2023-02-26T13:42:26;99710.16;;;15.50;58.02
5966;BME280;3009;43.224;27.976;2023-02-26T13:45:22;99718.28;;;15.30;58.63